Time;durP1;ratioP1;P1;durP2;ratioP2;P2;SDS_P1;SDS_P2;PMS_P1;PMS_P2;Temp;Humidity;BMP_temperature;BMP_pressure;BME280_temperature;BME280_humidity;BME280_pressure;Samples;Min_cycle;Max_cycle;Signal;HPM_P1;HPM_P2
2020/12/06 00:01:57;;;;;;;11.20;6.00;;;3.10;99.90;;;;;;5044333;28;20033;-78
2020/12/06 00:04:27;;;;;;;12.82;7.28;;;3.10;99.90;;;;;;5045579;28;20049;-77
2020/12/06 00:06:53;;;;;;;12.52;6.15;;;3.00;99.90;;;;;;5045426;28;20465;-78
2020/12/06 00:09:18;;;;;;;10.73;5.05;;;3.00;99.90;;;;;;5044371;28;20024;-77
2020/12/06 00:11:45;;;;;;;13.23;5.97;;;3.00;99.90;;;;;;5045399;28;20049;-79
2020/12/06 00:14:10;;;;;;;16.23;7.15;;;3.00;99.90;;;;;;5045465;28;20028;-77
2020/12/06 00:16:36;;;;;;;14.50;6.18;;;3.00;99.90;;;;;;5044138;28;20026;-77
2020/12/06 00:19:02;;;;;;;11.77;5.65;;;3.00;99.90;;;;;;5045430;28;20032;-77
2020/12/06 00:21:27;;;;;;;19.42;6.75;;;3.00;99.90;;;;;;5043847;28;20018;-77
2020/12/06 00:23:53;;;;;;;10.55;5.78;;;2.90;99.90;;;;;;5043318;28;20029;-77
2020/12/06 00:26:21;;;;;;;14.50;6.55;;;2.90;99.90;;;;;;5043970;28;20017;-77
2020/12/06 00:28:47;;;;;;;15.57;6.60;;;2.90;99.90;;;;;;5043934;28;20449;-80
2020/12/06 00:31:12;;;;;;;15.05;6.63;;;2.90;99.90;;;;;;5045454;28;20025;-78
2020/12/06 00:33:38;;;;;;;12.45;6.85;;;2.90;99.90;;;;;;5043916;28;20025;-79
2020/12/06 00:36:04;;;;;;;11.68;5.32;;;2.90;99.90;;;;;;5043827;28;20029;-78
2020/12/06 00:38:29;;;;;;;11.75;6.40;;;2.90;99.90;;;;;;5043724;28;20519;-77
2020/12/06 00:40:55;;;;;;;12.38;6.53;;;2.90;99.90;;;;;;5043662;28;20029;-78
2020/12/06 00:43:21;;;;;;;21.23;6.18;;;2.90;99.90;;;;;;5045066;28;20048;-77
2020/12/06 00:45:46;;;;;;;16.80;6.40;;;3.00;99.90;;;;;;5043540;28;20017;-78
2020/12/06 00:48:12;;;;;;;10.68;5.32;;;2.90;99.90;;;;;;5044933;28;20044;-77
2020/12/06 00:50:37;;;;;;;10.63;6.07;;;3.00;99.90;;;;;;5043887;28;20025;-78
2020/12/06 00:53:03;;;;;;;11.95;5.45;;;3.00;99.90;;;;;;5043265;28;20481;-79
2020/12/06 00:55:29;;;;;;;14.10;6.15;;;3.00;99.90;;;;;;5044918;28;20051;-78
2020/12/06 00:57:54;;;;;;;12.32;5.25;;;3.00;99.90;;;;;;5043458;28;20049;-78
2020/12/06 01:00:20;;;;;;;24.80;7.20;;;3.00;99.90;;;;;;5043710;28;20021;-78
2020/12/06 01:02:45;;;;;;;9.07;5.75;;;3.00;99.90;;;;;;5044514;28;20044;-80
2020/12/06 01:05:11;;;;;;;9.80;5.82;;;3.10;99.90;;;;;;5043716;28;20053;-78
2020/12/06 01:07:38;;;;;;;13.15;6.32;;;3.10;99.90;;;;;;5043287;28;20091;-77
2020/12/06 01:10:06;;;;;;;14.15;7.20;;;3.10;99.90;;;;;;5043303;28;20093;-79
2020/12/06 01:12:32;;;;;;;9.93;5.47;;;3.10;99.90;;;;;;5043191;28;20047;-77
2020/12/06 01:14:57;;;;;;;14.25;5.75;;;3.10;99.90;;;;;;5043271;28;20057;-78
2020/12/06 01:17:23;;;;;;;16.15;6.25;;;3.00;99.90;;;;;;5043321;28;20049;-76
2020/12/06 01:19:48;;;;;;;15.75;6.18;;;3.00;99.90;;;;;;5044468;28;20056;-79
2020/12/06 01:22:14;;;;;;;17.23;7.03;;;3.00;99.90;;;;;;5043211;28;20473;-77
2020/12/06 01:24:40;;;;;;;12.68;6.05;;;2.90;99.90;;;;;;5043587;28;20021;-77
2020/12/06 01:27:05;;;;;;;16.10;7.28;;;2.90;99.90;;;;;;5043114;28;20025;-77
2020/12/06 01:29:31;;;;;;;14.90;6.57;;;3.00;99.90;;;;;;5043262;28;20025;-78
2020/12/06 01:31:56;;;;;;;9.85;5.68;;;3.00;99.90;;;;;;5043180;28;20021;-78
2020/12/06 01:34:22;;;;;;;10.30;5.72;;;3.00;99.90;;;;;;5043609;28;20026;-79
2020/12/06 01:36:52;;;;;;;9.57;5.40;;;3.00;99.90;;;;;;5047170;28;20022;-77
2020/12/06 01:39:20;;;;;;;11.43;6.00;;;3.10;99.90;;;;;;5047124;28;20060;-77
2020/12/06 01:41:46;;;;;;;12.60;6.03;;;3.10;99.90;;;;;;5048382;28;20480;-80
2020/12/06 01:44:12;;;;;;;10.65;5.72;;;3.10;99.90;;;;;;5047112;28;20021;-77
2020/12/06 01:46:38;;;;;;;12.73;5.95;;;3.10;99.90;;;;;;5046744;28;20037;-77
2020/12/06 01:49:05;;;;;;;12.63;6.22;;;3.00;99.90;;;;;;5047893;28;20063;-77
2020/12/06 01:51:33;;;;;;;9.55;5.00;;;3.00;99.90;;;;;;5046840;28;20027;-76
2020/12/06 01:53:59;;;;;;;11.70;6.32;;;3.00;99.90;;;;;;5046577;28;20021;-77
2020/12/06 01:56:24;;;;;;;14.63;7.35;;;3.00;99.90;;;;;;5046536;28;20030;-77
2020/12/06 01:58:50;;;;;;;12.38;6.00;;;3.00;99.90;;;;;;5046374;28;20067;-78
2020/12/06 02:01:16;;;;;;;17.33;5.88;;;3.00;99.90;;;;;;5046601;28;20026;-78
2020/12/06 02:03:42;;;;;;;13.30;5.97;;;3.00;99.90;;;;;;5047912;28;20041;-77
2020/12/06 02:06:08;;;;;;;11.32;6.47;;;3.10;99.90;;;;;;5063107;28;20017;-76
2020/12/06 02:08:34;;;;;;;12.70;5.38;;;3.10;99.90;;;;;;5046264;28;20076;-75
2020/12/06 02:11:01;;;;;;;15.48;6.40;;;3.10;99.90;;;;;;5046049;28;20022;-77
2020/12/06 02:13:26;;;;;;;11.25;6.22;;;3.20;99.90;;;;;;5046383;28;20056;-76
2020/12/06 02:15:53;;;;;;;13.00;6.25;;;3.20;99.90;;;;;;5046404;28;20025;-77
2020/12/06 02:18:18;;;;;;;16.80;6.03;;;3.20;99.90;;;;;;5046278;28;20018;-76
2020/12/06 02:20:44;;;;;;;11.90;5.90;;;3.20;99.90;;;;;;5047601;28;20437;-78
2020/12/06 02:23:10;;;;;;;10.93;5.40;;;3.20;99.90;;;;;;5046247;28;20033;-77
2020/12/06 02:25:36;;;;;;;10.52;5.57;;;3.20;99.90;;;;;;5045927;28;20025;-76
2020/12/06 02:28:04;;;;;;;17.55;7.47;;;3.20;99.90;;;;;;5045721;28;20064;-76
2020/12/06 02:30:30;;;;;;;10.57;5.25;;;3.30;99.90;;;;;;5046204;28;20025;-77
2020/12/06 02:32:55;;;;;;;12.60;6.75;;;3.20;99.90;;;;;;5046108;28;20029;-77
2020/12/06 02:35:21;;;;;;;12.63;6.00;;;3.20;99.90;;;;;;5047509;28;20029;-77
2020/12/06 02:37:47;;;;;;;13.45;6.15;;;3.20;99.90;;;;;;5046993;28;20022;-77
2020/12/06 02:40:13;;;;;;;14.70;5.75;;;3.20;99.90;;;;;;5047295;28;20028;-78
2020/12/06 02:42:39;;;;;;;10.77;6.47;;;3.20;99.90;;;;;;5045741;28;20108;-77
2020/12/06 02:45:04;;;;;;;14.07;6.35;;;3.10;99.90;;;;;;5045873;28;20468;-77
2020/12/06 02:47:30;;;;;;;11.18;6.57;;;3.10;99.90;;;;;;5046142;28;20061;-78
2020/12/06 02:49:55;;;;;;;14.43;5.88;;;3.10;99.90;;;;;;5045790;28;20025;-76
2020/12/06 02:52:21;;;;;;;13.02;5.70;;;3.10;99.90;;;;;;5046797;28;20022;-77
2020/12/06 02:54:47;;;;;;;11.93;5.68;;;3.10;99.90;;;;;;5045555;28;20022;-78
2020/12/06 02:57:13;;;;;;;15.02;5.70;;;3.10;99.90;;;;;;5045729;28;20032;-77
2020/12/06 02:59:38;;;;;;;11.25;6.28;;;3.10;99.90;;;;;;5045617;28;20120;-77
2020/12/06 03:02:04;;;;;;;14.02;5.85;;;3.00;99.90;;;;;;5045484;28;20069;-76
2020/12/06 03:04:29;;;;;;;11.07;5.45;;;3.00;99.90;;;;;;5045373;28;20500;-77
2020/12/06 03:06:55;;;;;;;11.90;6.20;;;3.00;99.90;;;;;;5046506;28;20065;-77
2020/12/06 03:09:21;;;;;;;11.82;5.53;;;3.00;99.90;;;;;;5045266;28;20021;-77
2020/12/06 03:11:47;;;;;;;16.73;6.80;;;3.00;99.90;;;;;;5046850;28;20049;-78
2020/12/06 03:14:12;;;;;;;10.30;5.97;;;2.90;99.90;;;;;;5045558;28;20086;-80
2020/12/06 03:16:38;;;;;;;10.85;5.57;;;2.90;99.90;;;;;;5046566;28;20037;-76
2020/12/06 03:19:04;;;;;;;9.57;5.05;;;2.90;99.90;;;;;;5045225;28;20096;-77
2020/12/06 03:21:29;;;;;;;11.63;6.05;;;2.90;99.90;;;;;;5045287;28;20021;-77
2020/12/06 03:23:55;;;;;;;12.05;5.97;;;2.90;99.90;;;;;;5045402;28;20036;-76
2020/12/06 03:26:21;;;;;;;12.65;6.28;;;2.90;99.90;;;;;;5044867;28;20028;-77
2020/12/06 03:28:46;;;;;;;11.88;5.50;;;2.90;99.90;;;;;;5045022;28;20044;-78
2020/12/06 03:31:12;;;;;;;10.52;5.95;;;2.90;99.90;;;;;;5046616;28;20032;-76
2020/12/06 03:33:38;;;;;;;13.75;6.35;;;2.90;99.90;;;;;;5045069;28;20022;-78
2020/12/06 03:36:03;;;;;;;12.70;5.70;;;3.00;99.90;;;;;;5046244;28;20033;-77
2020/12/06 03:38:29;;;;;;;10.75;6.32;;;3.00;99.90;;;;;;5046061;28;20027;-77
2020/12/06 03:40:55;;;;;;;10.30;6.03;;;3.00;99.90;;;;;;5045652;28;20041;-76
2020/12/06 03:43:20;;;;;;;8.88;5.22;;;3.00;99.90;;;;;;5044627;28;20048;-77
2020/12/06 03:45:46;;;;;;;16.50;5.85;;;3.00;99.90;;;;;;5046109;28;20021;-77
2020/12/06 03:48:12;;;;;;;14.88;7.10;;;3.00;99.90;;;;;;5044851;28;20497;-77
2020/12/06 03:50:37;;;;;;;13.43;6.47;;;3.00;99.90;;;;;;5045860;28;20116;-77
2020/12/06 03:53:03;;;;;;;16.45;5.90;;;3.00;99.90;;;;;;5044397;28;20048;-77
2020/12/06 03:55:29;;;;;;;14.82;5.97;;;3.00;99.90;;;;;;5045680;28;20025;-78
2020/12/06 03:57:55;;;;;;;14.18;6.22;;;3.00;99.90;;;;;;5043853;28;20025;-76
2020/12/06 04:00:21;;;;;;;9.63;5.25;;;3.00;99.90;;;;;;5044245;28;20017;-79
2020/12/06 04:02:52;;;;;;;12.80;5.65;;;3.00;99.90;;;;;;5044193;28;20037;-78
2020/12/06 04:05:21;;;;;;;9.05;4.45;;;3.00;99.90;;;;;;5044307;28;20029;-78
2020/12/06 04:07:51;;;;;;;12.85;5.85;;;3.00;99.90;;;;;;5044012;28;20033;-78
2020/12/06 04:10:18;;;;;;;12.75;5.93;;;3.00;99.90;;;;;;5043947;28;20028;-79
2020/12/06 04:12:44;;;;;;;15.15;5.85;;;3.00;99.90;;;;;;5045543;28;20044;-79
2020/12/06 04:15:10;;;;;;;12.82;5.85;;;3.00;99.90;;;;;;5045627;28;20076;-76
2020/12/06 04:17:36;;;;;;;12.43;5.97;;;3.00;99.90;;;;;;5045557;28;20052;-77
2020/12/06 04:20:03;;;;;;;10.27;5.70;;;3.10;99.90;;;;;;5043879;28;20482;-76
2020/12/06 04:22:28;;;;;;;10.57;5.40;;;3.00;99.90;;;;;;5045162;28;20397;-77
2020/12/06 04:24:54;;;;;;;10.57;5.57;;;3.10;99.90;;;;;;5043951;28;20022;-77
2020/12/06 04:27:20;;;;;;;10.25;5.38;;;3.00;99.90;;;;;;5043642;28;20105;-77
2020/12/06 04:29:45;;;;;;;12.32;5.32;;;3.00;99.90;;;;;;5043762;28;20024;-78
2020/12/06 04:32:11;;;;;;;13.35;5.95;;;3.00;99.90;;;;;;5044190;28;20021;-77
2020/12/06 04:34:36;;;;;;;11.18;5.80;;;3.00;99.90;;;;;;5043599;28;20048;-77
2020/12/06 04:37:07;;;;;;;9.70;5.57;;;3.00;99.90;;;;;;5043659;28;20021;-77
2020/12/06 04:39:33;;;;;;;8.95;4.97;;;3.00;99.90;;;;;;5045069;28;20018;-77
2020/12/06 04:42:00;;;;;;;10.35;5.18;;;3.10;99.90;;;;;;5043574;28;20021;-77
2020/12/06 04:44:27;;;;;;;12.70;5.85;;;3.00;99.90;;;;;;5043419;28;20029;-77
2020/12/06 04:47:00;;;;;;;16.58;6.25;;;3.00;99.90;;;;;;5043319;28;20033;-76
2020/12/06 04:49:42;;;;;;;12.38;6.40;;;3.00;99.90;;;;;;5043648;28;20029;-76
2020/12/06 04:52:13;;;;;;;7.43;4.60;;;3.00;99.90;;;;;;5043715;28;20116;-78
2020/12/06 04:54:41;;;;;;;15.82;7.40;;;3.00;99.90;;;;;;5044604;28;20026;-78
2020/12/06 04:57:11;;;;;;;10.77;5.05;;;3.10;99.90;;;;;;5043660;28;20484;-77
2020/12/06 04:59:42;;;;;;;16.67;5.80;;;3.00;99.90;;;;;;5043370;28;20025;-77
2020/12/06 05:02:10;;;;;;;15.45;6.20;;;3.10;99.90;;;;;;5043555;28;20033;-77
2020/12/06 05:04:41;;;;;;;15.20;6.15;;;3.10;99.90;;;;;;5044412;28;20037;-76
2020/12/06 05:07:08;;;;;;;12.82;6.13;;;3.10;99.90;;;;;;5044553;28;20021;-77
2020/12/06 05:09:37;;;;;;;13.50;5.75;;;3.10;99.90;;;;;;5046600;28;20540;-77
2020/12/06 05:12:05;;;;;;;14.23;5.20;;;3.20;99.90;;;;;;5051359;28;20088;-77
2020/12/06 05:14:31;;;;;;;13.27;6.22;;;3.20;99.90;;;;;;5049804;28;20056;-77
2020/12/06 05:16:57;;;;;;;10.43;5.82;;;3.20;99.90;;;;;;5050981;28;20030;-77
2020/12/06 05:19:27;;;;;;;10.40;5.88;;;3.20;99.90;;;;;;5049953;28;20018;-78
2020/12/06 05:21:53;;;;;;;11.05;5.60;;;3.20;99.90;;;;;;5049700;28;20028;-77
2020/12/06 05:24:20;;;;;;;10.70;5.85;;;3.20;99.90;;;;;;5049929;28;20374;-78
2020/12/06 05:26:45;;;;;;;13.38;5.95;;;3.20;99.90;;;;;;5049594;28;20041;-78
2020/12/06 05:29:13;;;;;;;15.88;6.50;;;3.20;99.90;;;;;;5050007;28;20025;-78
2020/12/06 05:31:38;;;;;;;14.15;6.18;;;3.20;99.90;;;;;;5049937;28;20024;-78
2020/12/06 05:34:04;;;;;;;20.83;6.68;;;3.30;99.90;;;;;;5051140;28;20017;-77
2020/12/06 05:36:30;;;;;;;11.38;5.93;;;3.30;99.90;;;;;;5051051;28;20022;-78
2020/12/06 05:38:55;;;;;;;14.25;5.78;;;3.30;99.90;;;;;;5051114;28;20034;-77
2020/12/06 05:41:21;;;;;;;11.23;5.63;;;3.30;99.90;;;;;;5051015;28;20021;-77
2020/12/06 05:43:46;;;;;;;13.00;5.95;;;3.30;99.90;;;;;;5049752;28;20017;-78
2020/12/06 05:46:16;;;;;;;10.73;6.25;;;3.30;99.90;;;;;;5049904;28;20049;-77
2020/12/06 05:48:44;;;;;;;13.10;6.57;;;3.40;99.90;;;;;;5051227;28;20040;-77
2020/12/06 05:51:10;;;;;;;15.90;6.43;;;3.40;99.90;;;;;;5049726;28;20025;-78
2020/12/06 05:53:36;;;;;;;21.05;7.97;;;3.50;99.90;;;;;;5050771;28;20039;-77
2020/12/06 05:56:15;;;;;;;18.83;7.68;;;3.50;99.90;;;;;;5050743;28;20028;-77
2020/12/06 05:58:43;;;;;;;15.57;7.70;;;3.50;99.90;;;;;;5049913;28;20048;-76
2020/12/06 06:01:12;;;;;;;17.08;6.88;;;3.50;99.90;;;;;;5050833;28;20521;-77
2020/12/06 06:03:42;;;;;;;15.32;6.97;;;3.60;99.90;;;;;;5049378;28;20078;-77
2020/12/06 06:06:13;;;;;;;15.35;6.40;;;3.60;99.90;;;;;;5050874;28;20024;-77
2020/12/06 06:08:41;;;;;;;15.77;7.10;;;3.60;99.90;;;;;;5049602;28;20036;-77
2020/12/06 06:11:22;;;;;;;17.75;6.90;;;3.60;99.90;;;;;;5050574;28;20165;-78
2020/12/06 06:14:03;;;;;;;13.70;6.68;;;3.70;99.90;;;;;;5050882;28;20017;-77
2020/12/06 06:16:30;;;;;;;18.75;6.72;;;3.70;99.90;;;;;;5051199;28;20104;-77
2020/12/06 06:18:57;;;;;;;13.63;6.47;;;3.70;99.90;;;;;;5049419;28;20056;-77
2020/12/06 06:21:41;;;;;;;12.05;6.97;;;3.70;99.90;;;;;;5047087;28;20458;-77
2020/12/06 06:24:10;;;;;;;15.77;6.67;;;3.70;99.90;;;;;;5047647;28;20832;-77
2020/12/06 06:26:42;;;;;;;20.45;7.72;;;3.70;99.90;;;;;;5045883;28;20294;-76
2020/12/06 06:29:13;;;;;;;17.70;7.03;;;3.70;99.90;;;;;;5047632;28;20025;-77
2020/12/06 06:31:40;;;;;;;11.82;6.43;;;3.70;99.90;;;;;;5046119;28;20025;-76
2020/12/06 06:34:06;;;;;;;21.67;7.90;;;3.70;99.90;;;;;;5046130;28;20032;-77
2020/12/06 06:36:34;;;;;;;16.48;8.00;;;3.70;99.90;;;;;;5045821;28;20041;-77
2020/12/06 06:39:02;;;;;;;14.73;6.50;;;3.70;99.90;;;;;;5047354;28;20052;-77
2020/12/06 06:41:28;;;;;;;17.50;7.00;;;3.70;99.90;;;;;;5047213;28;20021;-77
2020/12/06 06:44:02;;;;;;;24.48;8.98;;;3.80;99.90;;;;;;5047225;28;20026;-76
2020/12/06 06:46:35;;;;;;;18.08;8.18;;;3.70;99.90;;;;;;5045683;28;20121;-76
2020/12/06 06:49:08;;;;;;;17.60;8.93;;;3.90;99.90;;;;;;5046981;28;20017;-77
2020/12/06 06:51:35;;;;;;;18.93;8.17;;;3.80;99.90;;;;;;5045769;28;20025;-79
2020/12/06 06:54:05;;;;;;;17.38;8.90;;;3.80;99.90;;;;;;5045615;28;20089;-77
2020/12/06 06:56:35;;;;;;;16.58;8.13;;;3.80;99.90;;;;;;5046838;28;20013;-77
2020/12/06 06:59:03;;;;;;;15.23;7.43;;;3.80;99.90;;;;;;5046795;28;20029;-79
2020/12/06 07:01:29;;;;;;;19.20;8.52;;;3.80;99.90;;;;;;5045708;28;20478;-78
2020/12/06 07:03:55;;;;;;;17.10;7.60;;;3.80;99.90;;;;;;5045362;28;20072;-77
2020/12/06 07:06:43;;;;;;;14.57;7.40;;;3.90;99.90;;;;;;5046957;28;20048;-79
2020/12/06 07:09:09;;;;;;;21.27;7.20;;;3.80;99.90;;;;;;5056978;28;20047;-77
2020/12/06 07:11:36;;;;;;;18.90;7.38;;;3.80;99.90;;;;;;5044911;28;20018;-79
2020/12/06 07:14:01;;;;;;;14.63;7.28;;;3.80;99.90;;;;;;5044611;28;20022;-78
2020/12/06 07:16:27;;;;;;;14.40;7.15;;;3.80;99.90;;;;;;5045012;28;20047;-78
2020/12/06 07:18:53;;;;;;;18.00;7.65;;;3.80;99.90;;;;;;5046112;28;20056;-77
2020/12/06 07:21:18;;;;;;;15.90;7.68;;;3.80;99.90;;;;;;5042310;28;20342;-78
2020/12/06 07:23:45;;;;;;;16.63;8.40;;;3.80;99.90;;;;;;5043578;28;20021;-79
2020/12/06 07:26:11;;;;;;;18.80;8.40;;;3.80;99.90;;;;;;5044840;28;20121;-78
2020/12/06 07:28:37;;;;;;;14.77;7.25;;;3.80;99.90;;;;;;5045883;28;20033;-79
2020/12/06 07:31:02;;;;;;;14.48;7.78;;;3.70;99.90;;;;;;5046283;28;20025;-78
2020/12/06 07:33:28;;;;;;;25.60;8.68;;;3.80;99.90;;;;;;5046182;28;20018;-78
2020/12/06 07:35:53;;;;;;;18.98;7.60;;;3.80;99.90;;;;;;5044830;28;20052;-79
2020/12/06 07:38:19;;;;;;;21.00;9.43;;;3.80;99.90;;;;;;5044785;28;20025;-82
2020/12/06 07:40:46;;;;;;;20.45;8.38;;;3.80;99.90;;;;;;5046564;28;20025;-80
2020/12/06 07:43:14;;;;;;;16.00;8.38;;;3.80;99.90;;;;;;5046432;28;20017;-79
2020/12/06 07:45:39;;;;;;;15.80;7.57;;;3.80;99.90;;;;;;5044619;28;20025;-79
2020/12/06 07:48:05;;;;;;;21.30;8.02;;;3.80;99.90;;;;;;5045823;28;20037;-78
2020/12/06 07:50:31;;;;;;;17.92;7.88;;;3.80;99.90;;;;;;5044716;28;20018;-78
2020/12/06 07:53:03;;;;;;;18.58;8.02;;;3.80;99.90;;;;;;5044242;28;20021;-77
2020/12/06 07:55:28;;;;;;;15.25;7.90;;;3.80;99.90;;;;;;5044134;28;20063;-79
2020/12/06 07:57:59;;;;;;;15.15;8.48;;;3.80;99.90;;;;;;5045498;28;20025;-79
2020/12/06 08:00:36;;;;;;;20.35;8.05;;;3.80;99.90;;;;;;5045556;28;20029;-79
2020/12/06 08:03:04;;;;;;;23.95;8.45;;;3.90;99.90;;;;;;5043698;28;20084;-81
2020/12/06 08:05:37;;;;;;;24.13;9.95;;;3.90;99.90;;;;;;5043845;28;20112;-80
2020/12/06 08:08:06;;;;;;;17.00;8.32;;;3.90;99.90;;;;;;5044072;28;20088;-78
2020/12/06 08:10:34;;;;;;;22.30;9.85;;;3.90;99.90;;;;;;5043718;28;20021;-79
2020/12/06 08:13:00;;;;;;;23.95;9.15;;;3.90;99.90;;;;;;5043852;28;20021;-80
2020/12/06 08:15:28;;;;;;;18.95;8.55;;;3.90;99.90;;;;;;5043297;28;20040;-80
2020/12/06 08:17:54;;;;;;;20.20;8.63;;;3.90;99.90;;;;;;5043802;28;20029;-79
2020/12/06 08:20:25;;;;;;;20.67;9.13;;;4.00;99.90;;;;;;5040460;28;20018;-79
2020/12/06 08:22:55;;;;;;;17.02;8.73;;;4.00;99.90;;;;;;5042531;28;20070;-80
2020/12/06 08:25:24;;;;;;;17.58;8.57;;;4.00;99.90;;;;;;5042873;28;20047;-78
2020/12/06 08:27:51;;;;;;;14.63;7.63;;;4.00;99.90;;;;;;5043494;28;20041;-80
2020/12/06 08:30:19;;;;;;;18.45;8.68;;;4.00;99.90;;;;;;5043783;28;20035;-78
2020/12/06 08:33:02;;;;;;;15.45;6.88;;;4.00;99.90;;;;;;5044548;28;20385;-80
2020/12/06 08:35:41;;;;;;;20.35;9.32;;;4.10;99.90;;;;;;5044748;28;20025;-76
2020/12/06 08:38:37;;;;;;;18.35;8.27;;;4.10;99.90;;;;;;5044860;28;20029;-80
2020/12/06 08:41:13;;;;;;;17.35;8.18;;;4.10;99.90;;;;;;5043879;28;20044;-76
2020/12/06 08:43:51;;;;;;;28.38;9.30;;;4.10;99.90;;;;;;5044675;28;20026;-76
2020/12/06 08:46:21;;;;;;;19.58;9.07;;;4.10;99.90;;;;;;5041691;28;20083;-78
2020/12/06 08:48:49;;;;;;;18.10;7.70;;;4.20;99.90;;;;;;5044039;28;20055;-77
2020/12/06 08:51:34;;;;;;;25.17;9.73;;;4.20;99.90;;;;;;5043151;28;20113;-78
2020/12/06 08:54:01;;;;;;;23.38;9.75;;;4.20;99.90;;;;;;5042895;28;20027;-77
2020/12/06 08:56:38;;;;;;;19.77;8.75;;;4.20;99.90;;;;;;5042839;28;20079;-76
2020/12/06 08:59:06;;;;;;;16.42;8.20;;;4.20;99.90;;;;;;5044124;28;20021;-77
2020/12/06 09:01:33;;;;;;;18.92;10.52;;;4.30;99.90;;;;;;5043568;28;20025;-76
2020/12/06 09:03:59;;;;;;;17.75;8.25;;;4.30;99.90;;;;;;5041091;28;20045;-76
2020/12/06 09:06:25;;;;;;;17.23;8.60;;;4.30;99.90;;;;;;5042922;28;20022;-76
2020/12/06 09:08:50;;;;;;;23.80;9.82;;;4.30;99.90;;;;;;5044183;28;20022;-77
2020/12/06 09:11:21;;;;;;;27.75;10.32;;;4.40;99.90;;;;;;5044238;28;20029;-77
2020/12/06 09:13:47;;;;;;;24.63;9.55;;;4.40;99.90;;;;;;5044468;28;20071;-77
2020/12/06 09:16:13;;;;;;;22.88;10.55;;;4.40;99.90;;;;;;5043049;28;20044;-77
2020/12/06 09:18:39;;;;;;;19.85;8.30;;;4.40;99.90;;;;;;5042966;28;20049;-76
2020/12/06 09:21:06;;;;;;;19.70;9.18;;;4.40;99.90;;;;;;5042521;28;20068;-77
2020/12/06 09:23:32;;;;;;;16.88;8.90;;;4.40;99.90;;;;;;5040795;28;20021;-76
2020/12/06 09:25:59;;;;;;;18.73;7.57;;;4.50;99.90;;;;;;5042450;28;20028;-77
2020/12/06 09:28:24;;;;;;;26.85;9.05;;;4.50;99.90;;;;;;5042410;28;20367;-76
2020/12/06 09:30:50;;;;;;;21.00;9.73;;;4.50;99.90;;;;;;5042465;28;20044;-77
2020/12/06 09:33:15;;;;;;;27.42;10.70;;;4.50;99.90;;;;;;5043875;28;20025;-77
2020/12/06 09:35:41;;;;;;;22.75;9.00;;;4.50;99.90;;;;;;5042986;28;20021;-77
2020/12/06 09:38:06;;;;;;;18.27;9.13;;;4.50;99.90;;;;;;5048670;28;20029;-77
2020/12/06 09:40:32;;;;;;;29.40;9.85;;;4.60;99.90;;;;;;5063853;28;20059;-77
2020/12/06 09:42:57;;;;;;;20.70;9.80;;;4.60;99.90;;;;;;5062744;28;20461;-76
2020/12/06 09:45:23;;;;;;;20.95;9.93;;;4.70;99.90;;;;;;5062753;28;20017;-77
2020/12/06 09:47:49;;;;;;;30.00;11.02;;;4.70;99.90;;;;;;5063841;28;20040;-77
2020/12/06 09:50:27;;;;;;;32.53;11.23;;;4.70;99.90;;;;;;5057253;28;20451;-78
2020/12/06 09:52:52;;;;;;;27.77;11.57;;;4.70;99.90;;;;;;5046274;28;20455;-78
2020/12/06 09:55:18;;;;;;;25.13;10.38;;;4.70;99.90;;;;;;5042707;28;20044;-78
2020/12/06 09:57:44;;;;;;;22.70;10.60;;;4.70;99.90;;;;;;5046436;28;20025;-79
2020/12/06 10:00:09;;;;;;;22.67;10.48;;;4.70;99.90;;;;;;5046407;28;20033;-79
2020/12/06 10:02:35;;;;;;;24.65;9.57;;;4.80;99.90;;;;;;5046163;28;20056;-75
2020/12/06 10:05:01;;;;;;;19.95;9.55;;;4.80;99.90;;;;;;5046187;28;20017;-78
2020/12/06 10:07:26;;;;;;;27.73;11.45;;;4.80;99.90;;;;;;5047344;28;20093;-76
2020/12/06 10:09:52;;;;;;;21.38;9.40;;;4.90;99.90;;;;;;5046176;28;20064;-77
2020/12/06 10:12:18;;;;;;;27.80;11.20;;;4.90;99.90;;;;;;5064014;28;20071;-77
2020/12/06 10:14:44;;;;;;;29.00;10.73;;;4.90;99.90;;;;;;5066053;28;20021;-76
2020/12/06 10:17:10;;;;;;;23.33;10.32;;;4.90;99.90;;;;;;5066540;28;20020;-76
2020/12/06 10:19:36;;;;;;;22.35;9.02;;;5.00;99.90;;;;;;5066036;28;20052;-75
2020/12/06 10:22:01;;;;;;;18.20;8.95;;;5.00;99.90;;;;;;5067282;28;20488;-76
2020/12/06 10:24:27;;;;;;;23.33;9.48;;;5.00;99.90;;;;;;5066027;28;20021;-77
2020/12/06 10:26:53;;;;;;;29.63;12.48;;;5.00;99.90;;;;;;5065751;28;20040;-76
2020/12/06 10:29:20;;;;;;;25.55;9.90;;;5.00;99.90;;;;;;5065266;28;20024;-77
2020/12/06 10:31:49;;;;;;;22.10;10.20;;;5.10;99.90;;;;;;5047062;28;20022;-77
2020/12/06 10:34:14;;;;;;;33.25;10.88;;;5.10;99.90;;;;;;5047177;28;20014;-77
2020/12/06 10:36:40;;;;;;;24.58;9.77;;;5.10;99.90;;;;;;5047224;28;20025;-76
2020/12/06 10:39:05;;;;;;;27.33;9.13;;;5.10;99.90;;;;;;5045573;28;20022;-77
2020/12/06 10:41:31;;;;;;;21.73;9.88;;;5.10;99.90;;;;;;5045390;28;20030;-77
2020/12/06 10:43:56;;;;;;;28.65;10.25;;;5.10;99.90;;;;;;5046942;28;20029;-77
2020/12/06 10:46:26;;;;;;;25.17;9.98;;;5.10;99.90;;;;;;5045371;28;20025;-77
2020/12/06 10:48:52;;;;;;;23.95;10.43;;;5.10;99.90;;;;;;5046834;28;20030;-77
2020/12/06 10:51:18;;;;;;;24.65;9.90;;;5.10;99.90;;;;;;5046871;28;20047;-77
2020/12/06 10:53:43;;;;;;;20.40;7.18;;;5.20;99.90;;;;;;5046367;28;20021;-77
2020/12/06 10:56:09;;;;;;;24.85;11.23;;;5.20;99.90;;;;;;5047506;28;20052;-76
2020/12/06 10:58:36;;;;;;;24.52;10.57;;;5.20;99.90;;;;;;5045572;28;20023;-77
2020/12/06 11:01:02;;;;;;;15.63;8.65;;;5.20;99.90;;;;;;5045112;28;20088;-76
2020/12/06 11:03:28;;;;;;;26.50;10.40;;;5.20;99.90;;;;;;5052189;28;20048;-77
2020/12/06 11:05:54;;;;;;;18.08;9.00;;;5.20;99.90;;;;;;5046447;28;20075;-78
2020/12/06 11:08:21;;;;;;;33.50;12.05;;;5.20;99.90;;;;;;5047716;28;20033;-76
2020/12/06 11:10:47;;;;;;;20.92;10.40;;;5.20;99.90;;;;;;5046106;28;20048;-79
2020/12/06 11:13:12;;;;;;;21.00;10.07;;;5.20;99.90;;;;;;5044727;28;20025;-76
2020/12/06 11:15:38;;;;;;;26.95;10.32;;;5.20;99.90;;;;;;5044119;28;20021;-77
2020/12/06 11:18:03;;;;;;;20.70;10.98;;;5.20;99.90;;;;;;5043934;28;20395;-79
2020/12/06 11:20:29;;;;;;;22.73;9.48;;;5.30;99.90;;;;;;5043524;28;20028;-77
2020/12/06 11:22:54;;;;;;;20.52;10.45;;;5.30;99.90;;;;;;5044646;28;20093;-77
2020/12/06 11:25:20;;;;;;;26.52;11.88;;;5.30;99.90;;;;;;5046784;28;20025;-76
2020/12/06 11:27:46;;;;;;;24.92;11.38;;;5.40;99.90;;;;;;5046595;28;20511;-77
2020/12/06 11:30:11;;;;;;;37.85;13.68;;;5.40;99.90;;;;;;5045403;28;20025;-76
2020/12/06 11:32:37;;;;;;;36.85;13.30;;;5.50;99.90;;;;;;5046753;28;20029;-76
2020/12/06 11:35:03;;;;;;;28.23;10.82;;;5.40;99.90;;;;;;5046334;28;20389;-76
2020/12/06 11:37:28;;;;;;;27.65;10.55;;;5.50;99.90;;;;;;5048831;28;20048;-76
2020/12/06 11:39:54;;;;;;;26.40;12.35;;;5.50;99.90;;;;;;5066077;28;20108;-76
2020/12/06 11:42:19;;;;;;;25.50;11.25;;;5.50;99.90;;;;;;5064566;28;20091;-77
2020/12/06 11:44:45;;;;;;;27.98;11.30;;;5.50;99.90;;;;;;5064541;28;20020;-77
2020/12/06 11:47:11;;;;;;;24.50;11.02;;;5.60;99.90;;;;;;5064445;28;20033;-76
2020/12/06 11:49:36;;;;;;;30.63;12.93;;;5.60;99.90;;;;;;5065969;28;20096;-76
2020/12/06 11:52:04;;;;;;;29.42;12.57;;;5.60;99.90;;;;;;5064871;28;20048;-76
2020/12/06 11:54:29;;;;;;;31.45;13.07;;;5.60;99.90;;;;;;5065791;28;20024;-76
2020/12/06 11:56:55;;;;;;;29.05;11.32;;;5.60;99.90;;;;;;5064285;28;20013;-76
2020/12/06 11:59:21;;;;;;;31.17;12.73;;;5.60;99.90;;;;;;5064202;28;20043;-77
2020/12/06 12:01:46;;;;;;;29.67;11.57;;;5.70;99.90;;;;;;5064505;28;20059;-78
2020/12/06 12:04:12;;;;;;;29.95;12.32;;;5.70;99.90;;;;;;5065758;28;20037;-76
2020/12/06 12:06:38;;;;;;;30.08;11.48;;;5.80;99.90;;;;;;5065262;28;20512;-76
2020/12/06 12:09:04;;;;;;;23.08;10.00;;;5.80;99.90;;;;;;5065449;28;20025;-76
2020/12/06 12:11:29;;;;;;;25.42;11.05;;;5.80;99.90;;;;;;5063835;28;20025;-78
2020/12/06 12:13:55;;;;;;;29.52;11.43;;;5.80;99.90;;;;;;5064279;28;20020;-77
2020/12/06 12:16:22;;;;;;;29.83;13.02;;;5.80;99.90;;;;;;5065229;28;20025;-76
2020/12/06 12:18:48;;;;;;;22.85;10.95;;;5.90;99.90;;;;;;5064656;28;20033;-77
2020/12/06 12:21:14;;;;;;;24.55;11.20;;;5.90;99.90;;;;;;5063764;28;20052;-78
2020/12/06 12:23:39;;;;;;;31.52;12.85;;;5.90;99.90;;;;;;5065049;28;20025;-76
2020/12/06 12:26:05;;;;;;;22.55;10.13;;;5.90;99.90;;;;;;5065227;28;20021;-76
2020/12/06 12:28:30;;;;;;;27.77;11.77;;;5.90;99.90;;;;;;5065078;28;20128;-76
2020/12/06 12:30:56;;;;;;;29.13;12.15;;;5.90;99.90;;;;;;5064853;28;20582;-77
2020/12/06 12:33:22;;;;;;;27.45;11.55;;;5.90;99.90;;;;;;5063679;28;20021;-77
2020/12/06 12:35:49;;;;;;;26.33;10.27;;;5.90;99.90;;;;;;5064995;28;20017;-77
2020/12/06 12:38:15;;;;;;;28.65;12.13;;;5.90;99.90;;;;;;5063874;28;20025;-77
2020/12/06 12:40:40;;;;;;;24.83;11.30;;;5.90;99.90;;;;;;5063618;28;20036;-77
2020/12/06 12:43:06;;;;;;;31.70;12.35;;;6.00;99.90;;;;;;5063549;28;20025;-77
2020/12/06 12:45:31;;;;;;;21.38;9.98;;;6.10;99.90;;;;;;5064747;28;20021;-77